Estación Meteorológica Peña el Pijo (Robertgarden) [ 02/02/23 21:40:25 CET ]

Fecha Hora Presion(HPa) Temp (°C) Humedad % Rocio (°C) Viento ( m/s) Direccion Lluvia 1Hora(mm) Lluvia 24H(mm) LLuvia Total(mm)
2012-Jan-24 01:01:13 1011.400 0.3 84 -2.1         151.25
2012-Jan-24 02:01:43 1011.500 -0.2 86 -2.2         151.25
2012-Jan-24 03:01:44 1011.500 -0.9 86 -2.9         151.25
2012-Jan-24 04:07:05 1011.600 -1.4 87 -3.3         151.25
2012-Jan-24 05:01:13 1011.500 -1.5 87 -3.4         151.25
2012-Jan-24 06:01:17 1011.500 -1.8 89 -3.4         151.25
2012-Jan-24 07:01:15 1011.900 -2.0 89 -3.6         151.25
2012-Jan-24 08:01:18 1012.100 -2.2 89 -3.8         151.25
2012-Jan-24 09:01:15 1012.400 -2.1 89 -3.7         151.25
2012-Jan-24 10:01:18 1012.400 2.3 89 0.6         151.25
2012-Jan-24 11:01:13 1012.800 7.9 71 3.0         151.25
2012-Jan-24 12:01:16 1012.900 11.4 57 3.1         151.25
2012-Jan-24 13:01:17 1012.300 13.8 49 3.3         151.25
2012-Jan-24 14:01:19 1011.600 15.9 44 3.6         151.25
2012-Jan-24 15:01:17 1010.900 16.9 41 3.5         151.25
2012-Jan-24 16:01:13 1010.900 16.8 39 2.7         151.25
2012-Jan-24 17:01:22 1011.100 13.3 48 2.5         151.25
2012-Jan-24 18:01:12 1011.400 11.0 56 2.5         151.25
2012-Jan-24 19:01:14 1012.100 7.4 65 1.2         151.25
2012-Jan-24 20:01:12 1012.600 5.1 73 0.6         151.25
2012-Jan-24 21:01:14 1012.900 2.6 75 -1.4         151.25
2012-Jan-24 22:01:13 1013.200 1.6 81 -1.3         151.25
2012-Jan-24 23:01:13 1013.200 0.6 83 -2.0         151.25

Temperatura Máxima:16°    Temperatura Mínima:-2°
Presión Máxima:1013.200 Hpa    Presión Mínima:1010.900 Hpa


Volver